Terminal Aerodrome Forecast
Issued by NWS North Platte, NE

Home | Current Version | Previous Version | Text Only | Print | Product List | Glossary On
Versions: 1 2 3 4 5 6 7 8 9 10 11 12 13 14 15 16 17 18
000
FTUS43 KLBF 021700 CCA
TAFLBF
TAF COR
KLBF 021753Z 0218/0318 17022G35KT P6SM BKN050
     FM030100 16015G25KT P6SM OVC015
     FM030300 15013G21KT 5SM -DZ BR OVC007
     FM030600 14010KT 4SM -FZDZ BR OVC005
     FM031100 35018G24KT P6SM -SHSN OVC015
     FM031400 35023G30KT P6SM OVC025=

USA.gov is the U.S. government's official web portal to all federal, state and local government web resources and services.